createdAt,value
2018-11-28T00:00:20.412Z,102214.88
2018-11-28T00:02:49.810Z,102216.56
2018-11-28T00:05:17.938Z,102205.92
2018-11-28T00:07:46.060Z,102202.45
2018-11-28T00:10:14.807Z,102196.05
2018-11-28T00:12:42.929Z,102197.28
2018-11-28T00:15:13.026Z,102190.38
2018-11-28T00:17:41.111Z,102191.14
2018-11-28T00:20:13.406Z,102190.68
2018-11-28T00:22:41.659Z,102191.16
2018-11-28T00:25:10.607Z,102189.41
2018-11-28T00:27:38.755Z,102185.23
2018-11-28T00:30:11.764Z,102187.05
2018-11-28T00:32:39.872Z,102177.88
2018-11-28T00:35:09.625Z,102175.69
2018-11-28T00:37:37.757Z,102179.13
2018-11-28T00:40:06.903Z,102173.58
2018-11-28T00:42:35.004Z,102181.58
2018-11-28T00:45:03.100Z,102190.08
2018-11-28T00:47:31.192Z,102188.27
2018-11-28T00:49:59.285Z,102184.05
2018-11-28T00:52:27.390Z,102190.03
2018-11-28T00:54:55.527Z,102192.55
2018-11-28T00:57:23.617Z,102186.43
2018-11-28T00:59:51.715Z,102187.40
2018-11-28T01:02:19.827Z,102187.78
2018-11-28T01:04:47.950Z,102186.14
2018-11-28T01:07:16.075Z,102196.07
2018-11-28T01:09:44.168Z,102194.78
2018-11-28T01:12:12.257Z,102190.72
2018-11-28T01:14:40.328Z,102195.94
2018-11-28T01:17:08.426Z,102196.50
2018-11-28T01:19:36.514Z,102193.34
2018-11-28T01:22:04.685Z,102192.45
2018-11-28T01:24:32.827Z,102192.44
2018-11-28T01:27:01.010Z,102195.05
2018-11-28T01:29:29.116Z,102196.34
2018-11-28T01:31:57.191Z,102197.15
2018-11-28T01:34:25.264Z,102192.45
2018-11-28T01:36:53.339Z,102193.72
2018-11-28T01:39:21.444Z,102197.41
2018-11-28T01:41:49.539Z,102197.99
2018-11-28T01:44:17.619Z,102200.96
2018-11-28T01:46:45.732Z,102201.77
2018-11-28T01:49:13.851Z,102207.66
2018-11-28T01:51:41.986Z,102213.23
2018-11-28T01:54:10.079Z,102205.82
2018-11-28T01:56:38.746Z,102205.00
2018-11-28T01:59:06.822Z,102199.72
2018-11-28T02:01:34.881Z,102192.50
2018-11-28T02:04:02.934Z,102197.99
2018-11-28T02:06:30.989Z,102201.50
2018-11-28T02:08:59.070Z,102195.14
2018-11-28T02:11:27.122Z,102197.27
2018-11-28T02:13:55.194Z,102194.09
2018-11-28T02:16:23.255Z,102189.86
2018-11-28T02:18:51.387Z,102187.30
2018-11-28T02:21:19.415Z,102184.75
2018-11-28T02:23:47.475Z,102177.84
2018-11-28T02:26:15.542Z,102177.80
2018-11-28T02:28:43.622Z,102179.94
2018-11-28T02:31:11.690Z,102170.69
2018-11-28T02:33:40.606Z,102181.95
2018-11-28T02:36:15.293Z,102191.24
2018-11-28T02:38:43.354Z,102182.28
2018-11-28T02:41:11.443Z,102182.19
2018-11-28T02:48:36.931Z,102180.91
2018-11-28T02:51:05.850Z,102183.89
2018-11-28T02:53:33.911Z,102189.86
2018-11-28T02:56:01.992Z,102194.45
2018-11-28T02:58:30.075Z,102201.77
2018-11-28T03:00:58.157Z,102197.52
2018-11-28T03:06:06.546Z,102197.50
2018-11-28T03:08:34.640Z,102203.61
2018-11-28T03:11:02.725Z,102206.56
2018-11-28T03:13:30.800Z,102206.19
2018-11-28T03:16:00.450Z,102206.56
2018-11-28T03:18:28.827Z,102208.13
2018-11-28T03:20:56.901Z,102206.06
2018-11-28T03:23:24.961Z,102197.81
2018-11-28T03:25:52.995Z,102205.20
2018-11-28T03:28:21.069Z,102207.61
2018-11-28T03:30:49.143Z,102209.27
2018-11-28T03:33:17.195Z,102204.47
2018-11-28T03:35:45.237Z,102215.34
2018-11-28T03:38:13.309Z,102227.66
2018-11-28T03:40:41.365Z,102224.62
2018-11-28T03:43:09.429Z,102222.97
2018-11-28T03:45:37.691Z,102220.47
2018-11-28T03:48:05.894Z,102228.38
2018-11-28T03:50:34.002Z,102227.19
2018-11-28T03:53:02.078Z,102220.84
2018-11-28T03:55:30.141Z,102222.16
2018-11-28T03:57:58.407Z,102220.84
2018-11-28T04:00:26.490Z,102212.31
2018-11-28T04:02:54.574Z,102216.19
2018-11-28T04:05:22.634Z,102215.30
2018-11-28T04:07:50.694Z,102212.73
2018-11-28T04:10:18.770Z,102203.71
2018-11-28T04:12:46.862Z,102198.44
2018-11-28T04:15:16.244Z,102199.62
2018-11-28T04:17:44.291Z,102190.56
2018-11-28T04:20:13.497Z,102187.98
2018-11-28T04:22:41.568Z,102183.78
2018-11-28T04:25:10.394Z,102180.03
2018-11-28T04:27:38.485Z,102190.40
2018-11-28T04:30:10.739Z,102188.12
2018-11-28T04:32:38.808Z,102182.47
2018-11-28T04:35:08.630Z,102179.34
2018-11-28T04:37:36.704Z,102185.38
2018-11-28T04:40:08.035Z,102180.66
2018-11-28T04:42:36.223Z,102181.02
2018-11-28T04:45:04.403Z,102185.87
2018-11-28T04:47:32.463Z,102186.73
2018-11-28T04:50:00.530Z,102181.83
2018-11-28T04:52:28.606Z,102180.06
2018-11-28T04:54:56.653Z,102177.48
2018-11-28T04:57:24.756Z,102167.99
2018-11-28T04:59:52.810Z,102160.24
2018-11-28T05:02:20.951Z,102168.47
2018-11-28T05:04:49.055Z,102165.92
2018-11-28T05:07:31.951Z,102167.63
2018-11-28T05:10:00.075Z,102177.00
2018-11-28T05:12:28.130Z,102180.80
2018-11-28T05:14:56.206Z,102184.98
2018-11-28T05:17:25.055Z,102185.45
2018-11-28T05:19:53.153Z,102183.00
2018-11-28T05:22:21.258Z,102185.28
2018-11-28T05:24:49.314Z,102192.67
2018-11-28T05:27:17.382Z,102195.16
2018-11-28T05:29:45.458Z,102191.69
2018-11-28T05:32:13.497Z,102194.31
2018-11-28T05:34:41.610Z,102193.20
2018-11-28T05:37:09.718Z,102190.22
2018-11-28T05:39:37.786Z,102186.29
2018-11-28T05:42:05.930Z,102188.83
2018-11-28T05:44:34.241Z,102194.73
2018-11-28T05:47:02.414Z,102187.57
2018-11-28T05:49:30.577Z,102187.91
2018-11-28T05:51:58.723Z,102191.42
2018-11-28T05:54:26.810Z,102197.22
2018-11-28T05:56:54.898Z,102199.81
2018-11-28T05:59:27.365Z,102195.84
2018-11-28T06:01:51.101Z,102193.13
2018-11-28T06:04:19.191Z,102194.59
2018-11-28T06:06:47.281Z,102193.51
2018-11-28T06:09:15.366Z,102198.58
2018-11-28T06:11:43.449Z,102198.52
2018-11-28T06:14:11.510Z,102198.61
2018-11-28T06:16:39.570Z,102195.98
2018-11-28T06:19:07.842Z,102199.03
2018-11-28T06:21:35.928Z,102199.06
2018-11-28T06:24:03.957Z,102199.98
2018-11-28T06:26:32.042Z,102193.13
2018-11-28T06:29:00.102Z,102203.83
2018-11-28T06:31:28.165Z,102203.47
2018-11-28T06:33:56.229Z,102199.59
2018-11-28T06:36:24.312Z,102198.73
2018-11-28T06:38:52.374Z,102199.45
2018-11-28T06:41:20.461Z,102203.66
2018-11-28T06:43:48.541Z,102200.23
2018-11-28T06:46:16.621Z,102204.48
2018-11-28T06:48:44.697Z,102205.74
2018-11-28T06:51:12.777Z,102206.67
2018-11-28T06:53:41.229Z,102210.48
2018-11-28T06:56:09.293Z,102213.91
2018-11-28T06:58:37.328Z,102213.91
2018-11-28T07:01:06.137Z,102225.10
2018-11-28T07:03:34.218Z,102223.44
2018-11-28T07:06:02.326Z,102220.09
2018-11-28T07:08:30.494Z,102223.31
2018-11-28T07:10:58.572Z,102226.89
2018-11-28T07:13:26.621Z,102226.30
2018-11-28T07:15:54.693Z,102226.33
2018-11-28T07:18:34.121Z,102224.62
2018-11-28T07:21:02.194Z,102231.01
2018-11-28T07:23:30.435Z,102228.12
2018-11-28T07:25:58.498Z,102229.81
2018-11-28T07:28:26.557Z,102222.20
2018-11-28T07:30:54.613Z,102215.64
2018-11-28T07:33:22.673Z,102223.49
2018-11-28T07:35:50.792Z,102214.03
2018-11-28T07:38:18.886Z,102214.45
2018-11-28T07:40:46.936Z,102209.23
2018-11-28T07:43:15.307Z,102212.30
2018-11-28T07:45:47.990Z,102211.20
2018-11-28T07:48:16.086Z,102213.14
2018-11-28T07:50:44.219Z,102211.53
2018-11-28T07:53:12.531Z,102213.62
2018-11-28T07:55:40.623Z,102210.84
2018-11-28T07:58:08.690Z,102206.54
2018-11-28T08:00:37.281Z,102213.13
2018-11-28T08:03:07.118Z,102217.81
2018-11-28T08:05:36.106Z,102208.69
2018-11-28T08:08:04.163Z,102212.17
2018-11-28T08:10:32.258Z,102198.23
2018-11-28T08:13:00.457Z,102209.10
2018-11-28T08:15:28.517Z,102213.82
2018-11-28T08:17:56.598Z,102217.64
2018-11-28T08:20:24.671Z,102209.71
2018-11-28T08:22:52.750Z,102213.19
2018-11-28T08:25:20.810Z,102208.82
2018-11-28T08:27:49.930Z,102214.08
2018-11-28T08:30:21.983Z,102208.69
2018-11-28T08:32:50.116Z,102206.06
2018-11-28T08:35:18.249Z,102204.33
2018-11-28T08:37:46.346Z,102209.63
2018-11-28T08:40:15.502Z,102213.90
2018-11-28T08:42:43.714Z,102215.20
2018-11-28T08:45:14.055Z,102214.98
2018-11-28T08:47:42.138Z,102212.34
2018-11-28T08:50:14.599Z,102217.16
2018-11-28T08:52:42.670Z,102213.77
2018-11-28T08:55:12.065Z,102214.59
2018-11-28T08:57:40.118Z,102206.64
2018-11-28T09:00:12.015Z,102210.54
2018-11-28T09:02:40.081Z,102205.48
2018-11-28T09:05:09.009Z,102203.47
2018-11-28T09:07:37.090Z,102200.77
2018-11-28T09:10:07.341Z,102199.63
2018-11-28T09:12:35.450Z,102204.86
2018-11-28T09:15:03.533Z,102204.84
2018-11-28T09:17:31.582Z,102215.22
2018-11-28T09:19:59.642Z,102216.22
2018-11-28T09:22:27.749Z,102207.15
2018-11-28T09:24:55.830Z,102212.65
2018-11-28T09:27:23.873Z,102213.63
2018-11-28T09:29:51.910Z,102212.77
2018-11-28T09:32:19.961Z,102208.12
2018-11-28T09:34:48.037Z,102197.86
2018-11-28T09:37:16.121Z,102197.44
2018-11-28T09:39:44.195Z,102196.50
2018-11-28T09:42:12.305Z,102193.52
2018-11-28T09:44:40.357Z,102188.35
2018-11-28T09:47:08.446Z,102199.07
2018-11-28T09:49:36.495Z,102189.42
2018-11-28T09:52:04.846Z,102196.19
2018-11-28T09:54:32.902Z,102191.48
2018-11-28T09:57:00.946Z,102191.50
2018-11-28T09:59:29.099Z,102196.55
2018-11-28T10:01:57.261Z,102193.48
2018-11-28T10:04:25.339Z,102202.98
2018-11-28T10:06:53.380Z,102197.84
2018-11-28T10:09:21.458Z,102190.16
2018-11-28T10:11:49.513Z,102185.87
2018-11-28T10:14:17.601Z,102175.59
2018-11-28T10:16:46.227Z,102167.45
2018-11-28T10:19:13.754Z,102171.70
2018-11-28T10:21:41.793Z,102176.47
2018-11-28T10:24:09.871Z,102171.83
2018-11-28T10:26:37.913Z,102164.09
2018-11-28T10:29:06.317Z,102163.63
2018-11-28T10:31:34.474Z,102164.15
2018-11-28T10:34:02.538Z,102169.72
2018-11-28T10:36:30.596Z,102169.27
2018-11-28T10:38:58.681Z,102165.80
2018-11-28T10:41:26.795Z,102153.70
2018-11-28T10:43:54.878Z,102142.24
2018-11-28T10:46:22.951Z,102146.51
2018-11-28T10:48:51.061Z,102136.25
2018-11-28T10:51:19.114Z,102136.27
2018-11-28T10:53:47.169Z,102125.54
2018-11-28T10:56:15.242Z,102128.94
2018-11-28T10:58:43.371Z,102124.23
2018-11-28T11:01:16.731Z,102121.31
2018-11-28T11:03:50.066Z,102124.02
2018-11-28T11:06:23.434Z,102123.90
2018-11-28T11:08:56.947Z,102138.81
2018-11-28T11:11:25.994Z,102130.20
2018-11-28T11:13:59.573Z,102122.55
2018-11-28T11:16:29.659Z,102112.22
2018-11-28T11:18:58.401Z,102104.98
2018-11-28T11:21:27.006Z,102111.91
2018-11-28T11:23:55.072Z,102112.17
2018-11-28T11:26:23.179Z,102103.64
2018-11-28T11:28:51.309Z,102108.75
2018-11-28T11:31:19.362Z,102104.50
2018-11-28T11:33:47.457Z,102100.74
2018-11-28T11:36:15.558Z,102101.95
2018-11-28T11:38:43.636Z,102107.94
2018-11-28T11:41:11.751Z,102108.37
2018-11-28T11:43:40.580Z,102105.02
2018-11-28T11:46:08.642Z,102095.66
2018-11-28T11:48:36.754Z,102098.67
2018-11-28T11:51:04.869Z,102093.06
2018-11-28T11:53:32.982Z,102104.27
2018-11-28T11:56:01.130Z,102092.96
2018-11-28T11:58:29.201Z,102080.98
2018-11-28T12:00:57.250Z,102079.75
2018-11-28T12:03:25.302Z,102082.38
2018-11-28T12:05:56.718Z,102080.98
2018-11-28T12:08:25.803Z,102071.23
2018-11-28T12:10:53.894Z,102064.70
2018-11-28T12:13:21.983Z,102056.52
2018-11-28T12:15:50.942Z,102056.93
2018-11-28T12:18:19.028Z,102059.53
2018-11-28T12:20:55.291Z,102061.34
2018-11-28T12:23:23.651Z,102066.02
2018-11-28T12:25:51.773Z,102058.38
2018-11-28T12:28:19.864Z,102056.25
2018-11-28T12:30:47.913Z,102057.05
2018-11-28T12:33:15.967Z,102058.80
2018-11-28T12:35:44.023Z,102056.66
2018-11-28T12:38:12.143Z,102063.57
2018-11-28T12:40:40.219Z,102060.09
2018-11-28T12:43:09.287Z,102048.94
2018-11-28T12:45:39.443Z,102055.40
2018-11-28T12:48:07.516Z,102052.88
2018-11-28T12:50:35.578Z,102045.48
2018-11-28T12:53:03.755Z,102048.03
2018-11-28T12:55:33.573Z,102044.17
2018-11-28T12:58:01.658Z,102047.16
2018-11-28T13:00:31.238Z,102042.93
2018-11-28T13:02:59.302Z,102039.05
2018-11-28T13:05:27.567Z,102037.81
2018-11-28T13:07:55.861Z,102038.28
2018-11-28T13:10:29.486Z,102028.75
2018-11-28T13:12:57.585Z,102026.16
2018-11-28T13:15:26.385Z,102034.39
2018-11-28T13:17:54.448Z,102024.92
2018-11-28T13:20:22.647Z,102030.16
2018-11-28T13:22:51.845Z,102021.53
2018-11-28T13:25:21.349Z,102014.61
2018-11-28T13:27:49.426Z,102009.55
2018-11-28T13:30:20.253Z,102006.96
2018-11-28T13:32:48.963Z,102005.73
2018-11-28T13:35:19.870Z,102014.63
2018-11-28T13:37:49.822Z,101994.50
2018-11-28T13:40:18.582Z,102002.22
2018-11-28T13:42:46.661Z,102000.91
2018-11-28T13:45:17.817Z,101996.75
2018-11-28T13:47:47.407Z,102002.77
2018-11-28T13:50:15.481Z,101998.88
2018-11-28T13:52:43.587Z,101999.73
2018-11-28T13:56:58.430Z,101991.13
2018-11-28T13:58:47.142Z,101985.53
2018-11-28T14:01:15.398Z,101987.63
2018-11-28T14:03:44.018Z,101987.26
2018-11-28T14:06:12.113Z,101982.92
2018-11-28T14:08:40.489Z,101992.43
2018-11-28T14:11:08.633Z,101978.71
2018-11-28T14:13:36.849Z,101977.39
2018-11-28T14:16:05.274Z,101976.06
2018-11-28T14:18:33.362Z,101972.61
2018-11-28T14:21:01.458Z,101970.92
2018-11-28T14:23:29.593Z,101964.11
2018-11-28T14:25:57.651Z,101956.72
2018-11-28T14:28:25.767Z,101963.16
2018-11-28T14:30:53.856Z,101964.91
2018-11-28T14:33:21.954Z,101963.19
2018-11-28T14:35:51.116Z,101962.75
2018-11-28T14:38:19.670Z,101961.46
2018-11-28T14:40:47.742Z,101968.73
2018-11-28T14:43:16.000Z,101971.27
2018-11-28T14:45:44.101Z,101962.23
2018-11-28T14:48:13.026Z,101960.06
2018-11-28T14:50:41.105Z,101957.90
2018-11-28T14:53:09.245Z,101962.65
2018-11-28T14:55:38.924Z,101957.48
2018-11-28T14:58:08.694Z,101960.05
2018-11-28T15:00:36.833Z,101955.75
2018-11-28T15:03:22.958Z,101956.61
2018-11-28T15:06:00.353Z,101953.20
2018-11-28T15:08:29.011Z,101960.88
2018-11-28T15:10:59.389Z,101952.28
2018-11-28T15:13:27.490Z,101965.53
2018-11-28T15:15:55.541Z,101952.71
2018-11-28T15:18:23.593Z,101955.23
2018-11-28T15:20:51.665Z,101948.77
2018-11-28T15:23:19.714Z,101951.34
2018-11-28T15:25:47.769Z,101949.23
2018-11-28T15:28:15.857Z,101945.01
2018-11-28T15:30:43.967Z,101943.28
2018-11-28T15:33:12.050Z,101934.15
2018-11-28T15:35:40.359Z,101929.90
2018-11-28T15:38:08.808Z,101921.30
2018-11-28T15:40:36.925Z,101923.48
2018-11-28T15:43:04.967Z,101923.48
2018-11-28T15:45:33.026Z,101912.75
2018-11-28T15:48:01.159Z,101909.72
2018-11-28T15:50:29.221Z,101904.12
2018-11-28T15:52:57.262Z,101904.16
2018-11-28T15:55:25.358Z,101907.98
2018-11-28T15:57:53.437Z,101905.85
2018-11-28T16:00:22.453Z,101903.76
2018-11-28T16:02:50.392Z,101897.25
2018-11-28T16:05:18.492Z,101887.05
2018-11-28T16:07:46.565Z,101890.44
2018-11-28T16:10:20.427Z,101886.31
2018-11-28T16:12:48.882Z,101893.09
2018-11-28T16:15:22.721Z,101888.75
2018-11-28T16:17:50.781Z,101884.48
2018-11-28T16:20:18.843Z,101887.05
2018-11-28T16:22:46.901Z,101900.72
2018-11-28T16:25:14.953Z,101893.03
2018-11-28T16:27:43.072Z,101904.19
2018-11-28T16:30:12.514Z,101899.92
2018-11-28T16:32:40.854Z,101900.34
2018-11-28T16:35:11.310Z,101896.47
2018-11-28T16:37:39.488Z,101886.58
2018-11-28T16:40:10.898Z,101885.75
2018-11-28T16:42:39.006Z,101889.62
2018-11-28T16:45:17.002Z,101888.36
2018-11-28T16:47:45.098Z,101875.89
2018-11-28T16:50:13.961Z,101882.78
2018-11-28T16:52:42.074Z,101875.04
2018-11-28T16:55:13.105Z,101881.05
2018-11-28T16:57:42.194Z,101881.49
2018-11-28T17:00:12.566Z,101878.47
2018-11-28T17:02:40.640Z,101872.52
2018-11-28T17:05:11.565Z,101869.91
2018-11-28T17:07:39.850Z,101878.06
2018-11-28T17:10:13.434Z,101871.69
2018-11-28T17:12:41.494Z,101871.24
2018-11-28T17:15:13.507Z,101868.66
2018-11-28T17:17:41.585Z,101870.41
2018-11-28T17:20:14.670Z,101865.64
2018-11-28T17:22:43.015Z,101861.81
2018-11-28T17:25:27.897Z,101850.66
2018-11-28T17:27:55.948Z,101855.39
2018-11-28T17:30:25.093Z,101860.53
2018-11-28T17:32:53.145Z,101848.95
2018-11-28T17:35:21.209Z,101843.80
2018-11-28T17:37:49.367Z,101838.22
2018-11-28T17:40:21.458Z,101839.55
2018-11-28T17:42:50.686Z,101832.66
2018-11-28T17:45:19.069Z,101833.55
2018-11-28T17:47:47.142Z,101832.67
2018-11-28T17:50:16.322Z,101833.08
2018-11-28T17:52:48.209Z,101824.53
2018-11-28T17:55:17.202Z,101815.96
2018-11-28T17:57:45.249Z,101814.69
2018-11-28T18:00:14.582Z,101819.80
2018-11-28T18:02:42.635Z,101816.40
2018-11-28T18:05:11.091Z,101802.27
2018-11-28T18:07:39.143Z,101808.27
2018-11-28T18:10:16.320Z,101794.56
2018-11-28T18:12:55.921Z,101792.40
2018-11-28T18:15:24.160Z,101792.38
2018-11-28T18:17:53.517Z,101793.66
2018-11-28T18:20:21.614Z,101781.25
2018-11-28T18:22:49.701Z,101779.97
2018-11-28T18:25:17.873Z,101772.27
2018-11-28T18:27:45.940Z,101762.84
2018-11-28T18:30:13.971Z,101762.83
2018-11-28T18:32:42.018Z,101770.97
2018-11-28T18:35:10.986Z,101785.59
2018-11-28T18:37:39.035Z,101778.34
2018-11-28T18:40:10.102Z,101779.61
2018-11-28T18:42:38.297Z,101790.76
2018-11-28T18:45:11.374Z,101804.48
2018-11-28T18:47:40.138Z,101805.31
2018-11-28T18:50:09.569Z,101794.17
2018-11-28T18:52:37.660Z,101795.90
2018-11-28T18:55:08.181Z,101791.64
2018-11-28T18:57:36.291Z,101801.93
2018-11-28T19:00:04.909Z,101811.74
2018-11-28T19:02:32.961Z,101809.19
2018-11-28T19:05:01.027Z,101802.77
2018-11-28T19:07:29.117Z,101810.91
2018-11-28T19:09:57.170Z,101803.20
2018-11-28T19:12:25.229Z,101796.72
2018-11-28T19:14:53.303Z,101790.30
2018-11-28T19:17:21.378Z,101784.76
2018-11-28T19:19:49.436Z,101788.21
2018-11-28T19:22:17.502Z,101785.61
2018-11-28T19:24:45.690Z,101781.75
2018-11-28T19:27:13.774Z,101776.17
2018-11-28T19:29:41.850Z,101777.92
2018-11-28T19:32:10.018Z,101779.61
2018-11-28T19:34:38.082Z,101782.63
2018-11-28T19:37:06.394Z,101769.33
2018-11-28T19:39:34.458Z,101761.61
2018-11-28T19:42:02.568Z,101765.05
2018-11-28T19:44:30.623Z,101765.91
2018-11-28T19:46:58.681Z,101745.78
2018-11-28T19:49:26.745Z,101744.04
2018-11-28T19:51:54.853Z,101735.46
2018-11-28T19:54:22.910Z,101729.45
2018-11-28T19:56:50.979Z,101731.58
2018-11-28T19:59:19.067Z,101734.58
2018-11-28T20:01:47.137Z,101741.03
2018-11-28T20:04:15.202Z,101715.72
2018-11-28T20:06:43.304Z,101712.32
2018-11-28T20:09:17.206Z,101698.16
2018-11-28T20:11:45.384Z,101708.45
2018-11-28T20:14:13.494Z,101708.03
2018-11-28T20:16:41.682Z,101704.58
2018-11-28T20:19:09.783Z,101722.61
2018-11-28T20:21:37.841Z,101711.90
2018-11-28T20:24:06.721Z,101720.91
2018-11-28T20:26:34.794Z,101711.05
2018-11-28T20:29:02.846Z,101716.61
2018-11-28T20:31:30.910Z,101722.61
2018-11-28T20:33:59.014Z,101714.89
2018-11-28T20:36:27.092Z,101709.34
2018-11-28T20:38:55.577Z,101702.89
2018-11-28T20:41:23.630Z,101708.03
2018-11-28T20:43:52.549Z,101715.77
2018-11-28T20:46:19.784Z,101710.18
2018-11-28T20:48:47.870Z,101702.03
2018-11-28T20:51:15.948Z,101692.59
2018-11-28T20:53:44.882Z,101687.87
2018-11-28T20:56:12.972Z,101687.87
2018-11-28T20:58:41.044Z,101680.16
2018-11-28T21:01:09.098Z,101680.59
2018-11-28T21:03:37.191Z,101666.86
2018-11-28T21:06:05.891Z,101666.42
2018-11-28T21:08:33.957Z,101656.13
2018-11-28T21:11:01.997Z,101657.86
2018-11-28T21:13:30.038Z,101652.70
2018-11-28T21:15:58.182Z,101659.56
2018-11-28T21:18:26.272Z,101662.13
2018-11-28T21:20:54.321Z,101656.55
2018-11-28T21:23:22.356Z,101654.42
2018-11-28T21:25:50.442Z,101664.30
2018-11-28T21:28:18.566Z,101656.56
2018-11-28T21:30:46.610Z,101659.55
2018-11-28T21:33:15.266Z,101657.41
2018-11-28T21:35:49.090Z,101641.55
2018-11-28T21:38:17.137Z,101644.95
2018-11-28T21:40:45.257Z,101649.26
2018-11-28T21:43:13.344Z,101641.52
2018-11-28T21:45:41.401Z,101641.11
2018-11-28T21:48:09.484Z,101641.53
2018-11-28T21:50:37.570Z,101639.80
2018-11-28T21:53:07.326Z,101632.53
2018-11-28T21:55:35.382Z,101635.95
2018-11-28T21:58:03.457Z,101632.11
2018-11-28T22:00:31.550Z,101635.11
2018-11-28T22:02:59.647Z,101637.26
2018-11-28T22:05:27.724Z,101632.52
2018-11-28T22:07:55.782Z,101640.25
2018-11-28T22:10:24.782Z,101635.53
2018-11-28T22:12:53.379Z,101629.54
2018-11-28T22:15:21.469Z,101630.83
2018-11-28T22:17:50.564Z,101628.66
2018-11-28T22:20:18.679Z,101627.37
2018-11-28T22:22:46.736Z,101628.66
2018-11-28T22:25:18.891Z,101622.22
2018-11-28T22:27:46.949Z,101614.94
2018-11-28T22:30:16.058Z,101611.52
2018-11-28T22:32:44.174Z,101619.66
2018-11-28T22:35:12.297Z,101621.80
2018-11-28T22:37:40.338Z,101625.66
2018-11-28T22:40:09.898Z,101631.68
2018-11-28T22:42:37.993Z,101612.81
2018-11-28T22:45:09.313Z,101617.08
2018-11-28T22:47:37.378Z,101614.53
2018-11-28T22:50:05.781Z,101614.09
2018-11-28T22:52:33.854Z,101613.25
2018-11-28T22:55:01.946Z,101617.08
2018-11-28T22:57:30.008Z,101613.66
2018-11-28T22:59:58.073Z,101590.05
2018-11-28T23:02:58.619Z,101584.05
2018-11-28T23:05:30.692Z,101590.08
2018-11-28T23:07:59.801Z,101586.63
2018-11-28T23:10:27.875Z,101578.47
2018-11-28T23:12:55.967Z,101561.74
2018-11-28T23:15:24.062Z,101562.17
2018-11-28T23:17:55.162Z,101554.45
2018-11-28T23:20:20.213Z,101542.01
2018-11-28T23:22:48.289Z,101544.16
2018-11-28T23:25:16.357Z,101536.43
2018-11-28T23:27:44.407Z,101546.27
2018-11-28T23:30:14.674Z,101535.97
2018-11-28T23:32:42.769Z,101540.72
2018-11-28T23:35:11.519Z,101548.02
2018-11-28T23:37:40.493Z,101552.70
2018-11-28T23:40:11.954Z,101566.03
2018-11-28T23:42:40.014Z,101546.27
2018-11-28T23:45:09.622Z,101543.26
2018-11-28T23:47:37.701Z,101530.81
2018-11-28T23:50:12.001Z,101523.12
2018-11-28T23:52:40.085Z,101516.69
2018-11-28T23:55:12.165Z,101518.84
2018-11-28T23:57:40.237Z,101507.25
